Time;durP1;ratioP1;P1;durP2;ratioP2;P2;SDS_P1;SDS_P2;PMS_P1;PMS_P2;Temp;Humidity;BMP_temperature;BMP_pressure;BME280_temperature;BME280_humidity;BME280_pressure;Samples;Min_cycle;Max_cycle;Signal;HPM_P1;HPM_P2
2023/09/27 00:00:30;;;;;;;30.30;5.18;;;17.40;92.30;;;;;;5062308;28;20028;-73
2023/09/27 00:02:57;;;;;;;33.85;5.15;;;17.40;92.10;;;;;;5053254;28;20024;-72
2023/09/27 00:05:24;;;;;;;31.98;5.30;;;17.50;91.80;;;;;;5060039;28;20032;-73
2023/09/27 00:07:51;;;;;;;33.85;5.60;;;17.60;91.70;;;;;;5052053;28;20032;-74
2023/09/27 00:10:17;;;;;;;24.63;4.93;;;17.60;91.50;;;;;;5068013;28;20028;-73
2023/09/27 00:12:45;;;;;;;26.02;4.65;;;17.60;91.40;;;;;;5046976;28;20040;-73
2023/09/27 00:15:12;;;;;;;35.00;4.50;;;17.60;91.40;;;;;;5066345;28;20112;-73
2023/09/27 00:17:38;;;;;;;22.98;4.57;;;17.60;91.30;;;;;;5058426;28;20063;-73
2023/09/27 00:20:05;;;;;;;26.02;5.32;;;17.70;91.30;;;;;;5061756;28;20040;-73
2023/09/27 00:22:32;;;;;;;32.78;4.97;;;17.70;91.40;;;;;;5063517;28;20036;-74
2023/09/27 00:24:59;;;;;;;26.75;4.75;;;17.70;91.40;;;;;;5051193;28;20038;-73
2023/09/27 00:27:26;;;;;;;34.35;4.53;;;17.80;91.30;;;;;;5062570;28;20035;-74
2023/09/27 00:29:52;;;;;;;26.33;4.30;;;17.80;91.30;;;;;;5053652;28;20117;-73
2023/09/27 00:32:17;;;;;;;31.02;4.45;;;17.70;91.30;;;;;;5060383;28;20082;-73
2023/09/27 00:34:43;;;;;;;41.00;5.32;;;17.70;91.40;;;;;;5052318;28;20032;-73
2023/09/27 00:37:09;;;;;;;31.48;5.97;;;17.70;91.50;;;;;;5065782;28;20037;-71
2023/09/27 00:39:36;;;;;;;34.97;5.35;;;17.70;91.60;;;;;;5050705;28;20036;-72
2023/09/27 00:42:02;;;;;;;33.22;4.70;;;17.70;91.50;;;;;;5068675;28;20033;-74
2023/09/27 00:44:28;;;;;;;36.05;5.93;;;17.70;91.60;;;;;;5057266;28;20620;-74
2023/09/27 00:46:54;;;;;;;32.53;5.47;;;17.60;91.80;;;;;;5067642;28;20028;-73
2023/09/27 00:49:20;;;;;;;27.65;4.57;;;17.60;91.90;;;;;;5061168;28;20388;-73
2023/09/27 00:51:45;;;;;;;42.08;5.07;;;17.60;92.00;;;;;;5068662;28;20089;-73
2023/09/27 00:54:12;;;;;;;42.47;5.53;;;17.70;92.00;;;;;;5061209;28;20036;-73
2023/09/27 00:56:38;;;;;;;36.30;5.22;;;17.70;92.20;;;;;;5073319;28;20047;-73
2023/09/27 00:59:05;;;;;;;36.05;5.82;;;17.70;92.10;;;;;;5051575;28;21012;-73
2023/09/27 01:01:31;;;;;;;27.30;5.88;;;17.70;92.20;;;;;;5065957;28;20077;-73
2023/09/27 01:03:58;;;;;;;44.67;6.10;;;17.60;92.40;;;;;;5064841;28;20028;-72
2023/09/27 01:06:24;;;;;;;35.53;5.55;;;17.60;92.70;;;;;;5057327;28;20044;-73
2023/09/27 01:08:49;;;;;;;36.10;5.50;;;17.50;92.70;;;;;;5069738;28;20028;-72
2023/09/27 01:11:16;;;;;;;41.20;5.90;;;17.50;92.80;;;;;;5056859;28;20040;-74
2023/09/27 01:13:42;;;;;;;36.60;6.30;;;17.40;93.00;;;;;;5066588;28;20032;-72
2023/09/27 01:16:08;;;;;;;44.22;6.95;;;17.40;93.20;;;;;;5058116;28;20043;-72
2023/09/27 01:18:33;;;;;;;39.63;6.43;;;17.40;93.20;;;;;;5069081;28;20071;-72
2023/09/27 01:21:00;;;;;;;47.75;6.03;;;17.40;93.20;;;;;;5054650;28;20141;-72
2023/09/27 01:23:27;;;;;;;43.35;5.38;;;17.40;93.20;;;;;;5069883;28;20429;-73
2023/09/27 01:25:58;;;;;;;36.17;5.65;;;17.40;93.30;;;;;;5053837;28;20062;-73
2023/09/27 01:28:24;;;;;;;43.60;6.07;;;17.30;93.40;;;;;;5070597;28;21467;-73
2023/09/27 01:30:50;;;;;;;28.67;4.90;;;17.30;93.40;;;;;;5052491;28;20032;-72
2023/09/27 01:33:16;;;;;;;29.83;4.85;;;17.30;93.30;;;;;;5058234;28;20036;-73
2023/09/27 01:35:43;;;;;;;40.45;5.82;;;17.30;93.40;;;;;;5051465;28;20036;-72
2023/09/27 01:38:10;;;;;;;43.78;5.53;;;17.30;93.40;;;;;;5065306;28;20111;-73
2023/09/27 01:40:38;;;;;;;31.02;5.50;;;17.30;93.40;;;;;;5053364;28;20043;-73
2023/09/27 01:43:04;;;;;;;47.58;6.10;;;17.30;93.40;;;;;;5068407;28;20183;-72
2023/09/27 01:45:31;;;;;;;36.25;5.03;;;17.20;93.50;;;;;;5054380;28;20024;-72
2023/09/27 01:47:57;;;;;;;31.77;5.18;;;17.20;93.50;;;;;;5068081;28;20032;-72
2023/09/27 01:50:24;;;;;;;32.28;6.45;;;17.20;93.40;;;;;;5069363;28;20407;-72
2023/09/27 01:52:51;;;;;;;41.60;5.97;;;17.20;93.40;;;;;;5057442;28;20073;-73
2023/09/27 01:55:16;;;;;;;47.95;5.40;;;17.20;93.40;;;;;;5073676;28;20036;-72
2023/09/27 01:57:45;;;;;;;36.53;5.63;;;17.20;93.50;;;;;;5059089;28;20036;-72
2023/09/27 02:00:11;;;;;;;42.60;5.83;;;17.20;93.70;;;;;;5061995;28;20106;-73
2023/09/27 02:02:38;;;;;;;41.05;5.95;;;17.10;93.80;;;;;;5047642;28;20024;-72
2023/09/27 02:05:04;;;;;;;35.40;5.35;;;17.10;93.90;;;;;;5061820;28;20025;-73
2023/09/27 02:07:30;;;;;;;46.72;6.50;;;17.10;93.90;;;;;;5050274;28;20028;-73
2023/09/27 02:09:56;;;;;;;53.28;6.18;;;17.10;94.00;;;;;;5063789;28;20085;-73
2023/09/27 02:12:22;;;;;;;42.22;5.22;;;17.00;94.00;;;;;;5052186;28;20039;-73
2023/09/27 02:14:47;;;;;;;44.35;5.43;;;17.00;94.10;;;;;;5065297;28;20151;-73
2023/09/27 02:17:13;;;;;;;37.63;6.40;;;17.00;94.10;;;;;;5055615;28;20079;-73
2023/09/27 02:19:39;;;;;;;43.55;5.55;;;17.10;94.10;;;;;;5061703;28;20032;-73
2023/09/27 02:22:06;;;;;;;37.53;4.90;;;17.20;93.90;;;;;;5059440;28;20028;-73
2023/09/27 02:24:31;;;;;;;40.10;5.10;;;17.20;93.70;;;;;;5070495;28;20024;-74
2023/09/27 02:26:57;;;;;;;35.75;5.43;;;17.30;93.50;;;;;;5052927;28;20024;-73
2023/09/27 02:29:23;;;;;;;34.30;4.55;;;17.40;93.30;;;;;;5067979;28;20032;-73
2023/09/27 02:31:49;;;;;;;41.08;5.13;;;17.40;93.20;;;;;;5063163;28;20036;-73
2023/09/27 02:34:14;;;;;;;28.67;4.45;;;17.50;93.10;;;;;;5055587;28;20540;-74
2023/09/27 02:36:41;;;;;;;32.50;4.95;;;17.50;92.90;;;;;;5065857;28;20031;-73
2023/09/27 02:39:07;;;;;;;29.52;4.47;;;17.50;92.80;;;;;;5052201;28;20045;-73
2023/09/27 02:41:33;;;;;;;32.53;5.47;;;17.50;92.80;;;;;;5067314;28;20020;-73
2023/09/27 02:43:59;;;;;;;32.88;6.18;;;17.50;92.90;;;;;;5055715;28;20059;-73
2023/09/27 02:46:25;;;;;;;38.22;5.88;;;17.50;92.90;;;;;;5068022;28;20573;-73
2023/09/27 02:48:51;;;;;;;28.60;4.88;;;17.50;92.80;;;;;;5056261;28;20565;-74
2023/09/27 02:51:17;;;;;;;34.10;5.30;;;17.40;92.70;;;;;;5067902;28;21458;-73
2023/09/27 02:53:44;;;;;;;30.02;5.10;;;17.40;92.60;;;;;;5051438;28;20037;-74
2023/09/27 02:56:11;;;;;;;35.25;5.15;;;17.40;92.50;;;;;;5068851;28;20124;-74
2023/09/27 02:58:37;;;;;;;32.65;4.57;;;17.40;92.40;;;;;;5054607;28;20028;-73
2023/09/27 03:01:04;;;;;;;28.48;4.82;;;17.40;92.40;;;;;;5065185;28;20043;-73
2023/09/27 03:03:30;;;;;;;29.90;4.75;;;17.30;92.30;;;;;;5053337;28;20067;-74
2023/09/27 03:05:57;;;;;;;28.83;4.80;;;17.30;92.30;;;;;;5062463;28;20155;-73
2023/09/27 03:08:24;;;;;;;28.27;4.28;;;17.30;92.20;;;;;;5052615;28;20059;-73
2023/09/27 03:10:50;;;;;;;26.08;3.83;;;17.30;92.20;;;;;;5067713;28;21418;-74
2023/09/27 03:13:15;;;;;;;30.27;4.40;;;17.30;92.10;;;;;;5055278;28;20033;-73
2023/09/27 03:15:43;;;;;;;30.85;4.47;;;17.30;92.00;;;;;;5058762;28;20066;-73
2023/09/27 03:18:09;;;;;;;27.52;5.03;;;17.30;91.80;;;;;;5065942;28;20040;-73
2023/09/27 03:20:36;;;;;;;25.15;4.20;;;17.30;91.90;;;;;;5052310;28;20035;-73
2023/09/27 03:23:03;;;;;;;27.02;4.07;;;17.40;91.90;;;;;;5071441;28;20029;-73
2023/09/27 03:25:28;;;;;;;31.13;4.57;;;17.40;91.80;;;;;;5055371;28;20032;-73
2023/09/27 03:27:55;;;;;;;30.42;4.05;;;17.40;91.90;;;;;;5064587;28;20031;-73
2023/09/27 03:30:22;;;;;;;25.75;4.45;;;17.50;91.90;;;;;;5052756;28;20378;-73
2023/09/27 03:32:47;;;;;;;25.95;3.58;;;17.50;92.00;;;;;;5063612;28;20113;-73
2023/09/27 03:35:13;;;;;;;29.35;4.75;;;17.40;92.00;;;;;;5054418;28;20107;-73
2023/09/27 03:37:39;;;;;;;25.20;4.10;;;17.40;92.10;;;;;;5069685;28;20028;-73
2023/09/27 03:40:13;;;;;;;27.55;3.67;;;17.30;92.20;;;;;;5050231;28;20036;-73
2023/09/27 03:42:41;;;;;;;23.35;4.03;;;17.30;92.30;;;;;;5067315;28;20687;-73
2023/09/27 03:45:07;;;;;;;20.85;3.50;;;17.30;92.30;;;;;;5053592;28;20039;-73
2023/09/27 03:47:33;;;;;;;27.48;4.05;;;17.20;92.40;;;;;;5061619;28;20032;-75
2023/09/27 03:49:59;;;;;;;35.22;5.35;;;17.20;92.60;;;;;;5058099;28;20036;-73
2023/09/27 03:52:25;;;;;;;26.80;4.18;;;17.20;92.70;;;;;;5065494;28;20102;-73
2023/09/27 03:54:51;;;;;;;27.75;4.25;;;17.20;92.60;;;;;;5053767;28;20033;-73
2023/09/27 03:57:18;;;;;;;22.08;4.25;;;17.20;92.60;;;;;;5070583;28;20028;-73
2023/09/27 03:59:43;;;;;;;25.02;3.78;;;17.20;92.60;;;;;;5062622;28;20062;-73
2023/09/27 04:02:09;;;;;;;27.45;4.15;;;17.20;92.60;;;;;;5059119;28;21510;-73
2023/09/27 04:04:35;;;;;;;24.08;4.40;;;17.30;92.60;;;;;;5052499;28;20476;-73
2023/09/27 04:07:00;;;;;;;28.50;4.45;;;17.30;92.60;;;;;;5050361;28;20024;-73
2023/09/27 04:09:27;;;;;;;26.67;4.10;;;17.30;92.60;;;;;;5062694;28;20039;-73
2023/09/27 04:11:52;;;;;;;22.35;3.92;;;17.30;92.50;;;;;;5047047;28;20043;-73
2023/09/27 04:14:18;;;;;;;36.65;4.22;;;17.40;92.40;;;;;;5061767;28;20032;-73
2023/09/27 04:16:43;;;;;;;24.73;4.43;;;17.40;92.10;;;;;;5055097;28;20193;-72
2023/09/27 04:19:09;;;;;;;18.80;3.30;;;17.50;91.90;;;;;;5066702;28;20066;-74
2023/09/27 04:21:35;;;;;;;25.95;3.58;;;17.50;91.90;;;;;;5057587;28;20348;-73
2023/09/27 04:24:03;;;;;;;26.80;3.70;;;17.50;91.70;;;;;;5070754;28;20032;-72
2023/09/27 04:26:29;;;;;;;18.98;3.47;;;17.50;91.80;;;;;;5056121;28;20065;-73
2023/09/27 04:28:54;;;;;;;16.45;3.45;;;17.40;92.00;;;;;;5075026;28;20754;-73
2023/09/27 04:31:20;;;;;;;19.95;3.88;;;17.50;91.80;;;;;;5058569;28;20491;-72
2023/09/27 04:33:47;;;;;;;21.70;3.13;;;17.50;91.80;;;;;;5062843;28;20024;-72
2023/09/27 04:36:17;;;;;;;20.58;3.38;;;17.50;91.70;;;;;;5060854;28;20126;-73
2023/09/27 04:38:45;;;;;;;25.08;3.97;;;17.40;91.90;;;;;;5072457;28;20227;-73
2023/09/27 04:41:36;;;;;;;23.45;3.47;;;17.40;92.10;;;;;;5059555;28;20826;-73
2023/09/27 04:44:02;;;;;;;20.88;3.75;;;17.40;92.20;;;;;;5066665;28;20032;-73
2023/09/27 04:46:28;;;;;;;20.98;4.20;;;17.40;92.50;;;;;;5059798;28;20044;-73
2023/09/27 04:48:53;;;;;;;22.10;4.20;;;17.40;92.60;;;;;;5068916;28;20638;-73
2023/09/27 04:51:19;;;;;;;19.67;3.45;;;17.40;92.60;;;;;;5075481;28;20638;-72
2023/09/27 04:53:45;;;;;;;27.95;4.10;;;17.40;92.50;;;;;;5054681;28;20141;-73
2023/09/27 04:56:11;;;;;;;21.38;3.80;;;17.50;92.40;;;;;;5073729;28;20038;-73
2023/09/27 04:58:38;;;;;;;22.52;3.45;;;17.50;92.50;;;;;;5059068;28;20032;-72
2023/09/27 05:01:05;;;;;;;18.85;3.90;;;17.60;92.50;;;;;;5064065;28;20032;-72
2023/09/27 05:03:31;;;;;;;18.90;4.20;;;17.60;92.40;;;;;;5061743;28;20036;-73
2023/09/27 05:05:57;;;;;;;25.90;3.28;;;17.70;92.20;;;;;;5071447;28;20029;-73
2023/09/27 05:08:24;;;;;;;26.50;3.67;;;17.70;92.10;;;;;;5056439;28;20152;-73
2023/09/27 05:10:50;;;;;;;17.15;3.50;;;17.80;92.10;;;;;;5070556;28;20103;-73
2023/09/27 05:13:16;;;;;;;28.33;4.47;;;17.80;92.30;;;;;;5052710;28;20034;-73
2023/09/27 05:15:41;;;;;;;19.17;4.63;;;17.90;92.10;;;;;;5066966;28;20063;-73
2023/09/27 05:18:07;;;;;;;26.90;4.00;;;17.90;92.30;;;;;;5055956;28;20049;-73
2023/09/27 05:20:35;;;;;;;23.25;3.72;;;17.90;92.30;;;;;;5066883;28;20031;-73
2023/09/27 05:23:01;;;;;;;23.23;4.25;;;17.90;92.10;;;;;;5058683;28;20075;-73
2023/09/27 05:25:26;;;;;;;18.67;4.78;;;17.90;92.10;;;;;;5069467;28;20135;-73
2023/09/27 05:27:52;;;;;;;21.08;5.00;;;17.90;92.20;;;;;;5055792;28;20025;-73
2023/09/27 05:30:21;;;;;;;23.45;4.45;;;17.80;92.40;;;;;;5069888;28;20472;-73
2023/09/27 05:32:47;;;;;;;22.80;4.53;;;17.80;92.80;;;;;;5066711;28;20051;-74
2023/09/27 05:35:13;;;;;;;26.13;5.05;;;17.70;92.90;;;;;;5058623;28;20534;-73
2023/09/27 05:37:42;;;;;;;31.10;5.18;;;17.60;93.10;;;;;;5067050;28;20028;-73
2023/09/27 05:40:10;;;;;;;32.27;4.53;;;17.60;93.10;;;;;;5052489;28;20814;-72
2023/09/27 05:42:39;;;;;;;26.77;5.10;;;17.60;93.20;;;;;;5069156;28;20719;-73
2023/09/27 05:45:05;;;;;;;32.70;5.07;;;17.50;93.20;;;;;;5051024;28;20032;-73
2023/09/27 05:47:31;;;;;;;27.67;5.43;;;17.50;93.30;;;;;;5062823;28;20064;-72
2023/09/27 05:49:57;;;;;;;23.33;5.72;;;17.50;93.30;;;;;;5056037;28;20551;-73
2023/09/27 05:52:23;;;;;;;34.72;5.20;;;17.50;93.40;;;;;;5068420;28;20028;-73
2023/09/27 05:54:51;;;;;;;31.33;5.25;;;17.50;93.50;;;;;;5052277;28;20040;-72
2023/09/27 05:57:17;;;;;;;29.73;5.25;;;17.50;93.60;;;;;;5068547;28;20032;-73
2023/09/27 05:59:44;;;;;;;32.97;5.93;;;17.50;93.50;;;;;;5052902;28;20120;-73
2023/09/27 06:02:16;;;;;;;31.27;4.82;;;17.50;93.50;;;;;;5063332;28;20033;-74
2023/09/27 06:04:43;;;;;;;29.27;5.97;;;17.60;93.50;;;;;;5048493;28;20777;-73
2023/09/27 06:07:13;;;;;;;35.25;5.40;;;17.60;93.40;;;;;;5065559;28;20043;-73
2023/09/27 06:09:40;;;;;;;37.78;4.63;;;17.60;93.40;;;;;;5044403;28;20032;-72
2023/09/27 06:12:06;;;;;;;27.35;5.70;;;17.60;93.30;;;;;;5061817;28;20093;-74
2023/09/27 06:14:32;;;;;;;21.48;4.57;;;17.50;93.20;;;;;;5044620;28;20287;-73
2023/09/27 06:16:58;;;;;;;26.38;4.95;;;17.50;93.10;;;;;;5058174;28;20032;-73
2023/09/27 06:19:23;;;;;;;20.55;4.13;;;17.60;93.10;;;;;;5053347;28;20043;-72
2023/09/27 06:21:49;;;;;;;26.67;4.68;;;17.50;93.10;;;;;;5050657;28;20383;-71
2023/09/27 06:24:16;;;;;;;28.92;4.40;;;17.60;93.00;;;;;;5056917;28;20399;-72
2023/09/27 06:26:41;;;;;;;20.17;4.28;;;17.60;93.00;;;;;;5046615;28;20084;-72
2023/09/27 06:29:09;;;;;;;26.48;4.80;;;17.60;93.10;;;;;;5060119;28;20588;-72
2023/09/27 06:31:35;;;;;;;27.90;4.30;;;17.60;93.30;;;;;;5054885;28;20150;-72
2023/09/27 06:34:01;;;;;;;27.23;4.78;;;17.60;93.20;;;;;;5050107;28;20028;-71
2023/09/27 06:36:29;;;;;;;21.98;3.78;;;17.70;93.10;;;;;;5047896;28;20059;-72
2023/09/27 06:38:56;;;;;;;23.67;4.55;;;17.70;93.00;;;;;;5055768;28;20033;-73
2023/09/27 06:41:22;;;;;;;26.70;3.88;;;17.70;92.80;;;;;;5040817;28;20052;-73
2023/09/27 06:43:48;;;;;;;19.83;3.60;;;17.70;92.70;;;;;;5054963;28;20033;-73
2023/09/27 06:46:17;;;;;;;26.13;5.03;;;17.80;92.60;;;;;;5041730;28;20111;-71
2023/09/27 06:48:43;;;;;;;24.10;3.63;;;17.80;92.60;;;;;;5052981;28;20033;-71
2023/09/27 06:51:11;;;;;;;23.60;4.22;;;17.90;92.60;;;;;;5048112;28;20102;-72
2023/09/27 06:53:38;;;;;;;18.30;4.00;;;18.00;92.50;;;;;;5052645;28;20024;-71
2023/09/27 06:56:05;;;;;;;16.00;3.30;;;18.00;92.30;;;;;;5045661;28;20971;-72
2023/09/27 06:58:31;;;;;;;19.48;3.85;;;18.10;92.30;;;;;;5055405;28;20107;-73
2023/09/27 07:00:57;;;;;;;25.35;4.85;;;18.10;92.20;;;;;;5044384;28;20150;-72
2023/09/27 07:03:28;;;;;;;29.40;3.95;;;18.10;92.20;;;;;;5055376;28;20040;-73
2023/09/27 07:05:54;;;;;;;24.52;4.22;;;18.20;92.10;;;;;;5057538;28;20033;-74
2023/09/27 07:08:20;;;;;;;18.83;4.05;;;18.20;91.90;;;;;;5047257;28;20058;-72
2023/09/27 07:10:47;;;;;;;20.52;3.38;;;18.20;91.90;;;;;;5039451;28;20792;-73
2023/09/27 07:13:13;;;;;;;17.95;4.10;;;18.40;92.00;;;;;;5032799;28;20075;-73
2023/09/27 07:15:38;;;;;;;23.40;3.95;;;18.50;91.40;;;;;;5044922;28;20123;-73
2023/09/27 07:18:05;;;;;;;16.77;3.90;;;18.40;91.20;;;;;;5038435;28;21022;-73
2023/09/27 07:20:36;;;;;;;22.02;3.78;;;18.40;91.00;;;;;;5046944;28;20024;-73
2023/09/27 07:23:04;;;;;;;17.45;3.65;;;18.50;90.70;;;;;;5039142;28;20737;-73
2023/09/27 07:25:34;;;;;;;23.40;3.75;;;18.60;90.60;;;;;;5047651;28;20033;-73
2023/09/27 07:28:03;;;;;;;15.95;3.50;;;18.60;90.40;;;;;;5047204;28;20063;-73
2023/09/27 07:30:29;;;;;;;25.00;4.28;;;18.60;90.20;;;;;;5062040;28;20028;-73
2023/09/27 07:32:55;;;;;;;26.42;4.10;;;18.50;90.20;;;;;;5043127;28;20046;-73
2023/09/27 07:35:21;;;;;;;21.23;3.75;;;18.60;90.00;;;;;;5059733;28;20031;-72
2023/09/27 07:37:47;;;;;;;22.10;4.03;;;18.60;90.10;;;;;;5046771;28;20032;-74
2023/09/27 07:40:14;;;;;;;23.98;3.67;;;18.60;89.80;;;;;;5046727;28;20115;-73
2023/09/27 07:42:42;;;;;;;26.25;4.50;;;18.60;89.60;;;;;;5031733;28;20028;-73
2023/09/27 07:45:14;;;;;;;22.53;3.73;;;18.70;89.50;;;;;;5046646;28;22131;-71
2023/09/27 07:47:40;;;;;;;21.85;3.53;;;18.70;89.30;;;;;;5033574;28;20478;-73
2023/09/27 07:50:06;;;;;;;22.42;3.83;;;18.60;88.30;;;;;;5046059;28;20041;-74
2023/09/27 07:52:31;;;;;;;19.00;3.60;;;18.70;88.00;;;;;;5047095;28;20063;-72
2023/09/27 07:54:58;;;;;;;18.83;3.88;;;18.60;87.90;;;;;;5038805;28;20396;-75
2023/09/27 07:57:24;;;;;;;22.73;4.18;;;18.70;86.90;;;;;;5049606;28;20033;-74
2023/09/27 07:59:51;;;;;;;19.20;3.70;;;18.70;87.10;;;;;;5036214;28;22602;-75
2023/09/27 08:02:17;;;;;;;17.40;3.30;;;18.70;87.10;;;;;;5038391;28;20060;-74
2023/09/27 08:04:43;;;;;;;15.85;3.50;;;18.80;86.80;;;;;;5038973;28;20108;-74
2023/09/27 08:07:10;;;;;;;17.58;3.20;;;18.80;87.10;;;;;;5040136;28;20038;-73
2023/09/27 08:09:38;;;;;;;20.30;4.00;;;18.80;86.20;;;;;;5023253;28;20052;-74
2023/09/27 08:12:05;;;;;;;14.43;3.53;;;18.90;85.90;;;;;;5039011;28;20285;-75
2023/09/27 08:14:32;;;;;;;18.63;4.38;;;18.90;85.20;;;;;;5021929;28;20032;-73
2023/09/27 08:16:58;;;;;;;16.90;3.85;;;18.80;85.00;;;;;;5042496;28;20139;-74
2023/09/27 08:19:24;;;;;;;19.73;3.60;;;18.90;84.90;;;;;;5033506;28;20070;-74
2023/09/27 08:21:50;;;;;;;14.00;2.50;;;18.90;84.70;;;;;;5040562;28;20431;-74
2023/09/27 08:24:17;;;;;;;15.02;3.35;;;18.90;84.40;;;;;;5031198;28;20609;-74
2023/09/27 08:26:43;;;;;;;13.77;2.60;;;18.90;84.20;;;;;;5044451;28;20020;-74
2023/09/27 08:29:09;;;;;;;14.68;2.78;;;19.00;83.20;;;;;;5031877;28;20025;-73
2023/09/27 08:31:37;;;;;;;17.77;3.10;;;19.20;82.70;;;;;;5046287;28;20025;-74
2023/09/27 08:34:04;;;;;;;23.65;3.65;;;19.30;82.20;;;;;;5039165;28;20694;-74
2023/09/27 08:36:30;;;;;;;11.70;3.03;;;19.20;82.40;;;;;;5052723;28;20032;-74
2023/09/27 08:38:56;;;;;;;16.95;3.63;;;19.30;82.00;;;;;;5050423;28;20051;-74
2023/09/27 08:41:23;;;;;;;9.32;2.50;;;19.40;81.40;;;;;;5041739;28;20802;-73
2023/09/27 08:43:51;;;;;;;15.10;3.65;;;19.40;81.10;;;;;;5053175;28;20090;-74
2023/09/27 08:46:20;;;;;;;16.35;2.95;;;19.50;80.30;;;;;;5043425;28;20039;-73
2023/09/27 08:48:48;;;;;;;;;;;19.50;79.50;;;;;;5043135;28;20464;-73
2023/09/27 08:51:14;;;;;;;12.32;2.80;;;19.60;79.40;;;;;;5037453;28;20292;-72
2023/09/27 08:53:42;;;;;;;12.82;2.88;;;19.70;78.40;;;;;;5047987;28;20032;-73
2023/09/27 08:56:09;;;;;;;14.40;2.50;;;19.80;78.00;;;;;;5037201;28;21158;-73
2023/09/27 08:58:36;;;;;;;14.90;2.58;;;19.80;76.50;;;;;;5044779;28;20039;-73
2023/09/27 09:01:06;;;;;;;12.95;2.63;;;19.90;76.60;;;;;;5036535;28;20083;-72
2023/09/27 09:03:32;;;;;;;19.77;3.58;;;19.80;77.30;;;;;;5046139;28;20123;-72
2023/09/27 09:05:59;;;;;;;14.57;2.63;;;19.90;77.30;;;;;;5039949;28;20048;-72
2023/09/27 09:08:24;;;;;;;12.48;2.63;;;20.00;77.30;;;;;;5043713;28;20054;-72
2023/09/27 09:10:52;;;;;;;15.20;3.30;;;20.00;77.50;;;;;;5033186;28;20515;-73
2023/09/27 09:13:22;;;;;;;16.77;3.23;;;20.00;77.70;;;;;;5045721;28;20096;-73
2023/09/27 09:15:49;;;;;;;10.80;2.50;;;20.10;77.80;;;;;;5037102;28;20024;-73
2023/09/27 09:18:33;;;;;;;12.15;2.83;;;20.20;78.30;;;;;;5042581;28;20044;-73
2023/09/27 09:21:08;;;;;;;11.45;3.10;;;20.20;78.30;;;;;;5031906;28;20032;-73
2023/09/27 09:23:36;;;;;;;11.60;2.83;;;20.20;78.90;;;;;;5049622;28;20029;-73
2023/09/27 09:26:05;;;;;;;18.13;3.33;;;20.00;80.20;;;;;;5039044;28;20029;-72
2023/09/27 09:28:31;;;;;;;14.57;3.58;;;19.80;81.20;;;;;;5044706;28;20645;-73
2023/09/27 09:30:57;;;;;;;20.75;3.58;;;19.80;81.70;;;;;;5032426;28;20032;-73
2023/09/27 09:33:28;;;;;;;20.77;3.42;;;19.70;82.90;;;;;;5055312;28;20864;-73
2023/09/27 09:35:54;;;;;;;10.95;3.03;;;19.70;83.40;;;;;;5033184;28;20047;-72
2023/09/27 09:38:28;;;;;;;17.00;3.20;;;19.70;84.80;;;;;;5052459;28;20054;-72
2023/09/27 09:40:56;;;;;;;15.95;3.40;;;19.70;84.30;;;;;;5043239;28;20044;-73
2023/09/27 09:43:37;;;;;;;23.23;3.42;;;19.70;84.60;;;;;;5040036;28;20040;-72
2023/09/27 09:46:06;;;;;;;16.35;3.35;;;19.60;85.40;;;;;;5050609;28;20040;-74
2023/09/27 09:48:34;;;;;;;;;;;19.80;85.50;;;;;;5040356;28;20079;-73
2023/09/27 09:51:03;;;;;;;15.98;3.50;;;20.00;85.00;;;;;;5054170;28;20003;-73
2023/09/27 09:53:29;;;;;;;13.65;3.63;;;20.20;84.50;;;;;;5047346;28;20508;-74
2023/09/27 09:55:57;;;;;;;14.38;2.95;;;20.30;83.80;;;;;;5050435;28;20059;-73
2023/09/27 09:58:27;;;;;;;21.85;3.95;;;20.50;83.80;;;;;;5047431;28;20167;-74
2023/09/27 10:00:54;;;;;;;19.38;4.07;;;20.50;83.60;;;;;;5055207;28;20036;-75
2023/09/27 10:03:22;;;;;;;15.95;3.28;;;20.50;83.00;;;;;;5046015;28;20036;-74
2023/09/27 10:05:51;;;;;;;14.60;3.22;;;20.60;83.10;;;;;;5054630;28;20051;-73
2023/09/27 10:08:18;;;;;;;16.10;3.47;;;20.90;82.30;;;;;;5043898;28;20147;-74
2023/09/27 10:10:44;;;;;;;10.65;3.13;;;20.80;82.10;;;;;;5046479;28;20035;-72
2023/09/27 10:13:11;;;;;;;16.75;3.47;;;20.90;81.70;;;;;;5034341;28;20032;-73
2023/09/27 10:15:40;;;;;;;16.17;3.50;;;21.10;80.00;;;;;;5045478;28;20028;-72
2023/09/27 10:18:30;;;;;;;12.50;3.55;;;21.10;80.00;;;;;;5045699;28;20944;-72
2023/09/27 10:21:05;;;;;;;16.23;3.35;;;21.00;80.20;;;;;;5042518;28;20039;-75
2023/09/27 10:23:36;;;;;;;15.27;3.67;;;21.20;79.90;;;;;;5034352;28;20054;-73
2023/09/27 10:26:29;;;;;;;14.30;3.47;;;21.30;79.50;;;;;;5051266;28;20028;-74
2023/09/27 10:29:13;;;;;;;12.02;2.97;;;21.20;79.20;;;;;;5035400;28;20058;-73
2023/09/27 10:32:01;;;;;;;17.60;3.80;;;20.70;81.20;;;;;;5053220;28;20051;-72
2023/09/27 10:34:27;;;;;;;11.45;3.47;;;20.80;81.50;;;;;;5037758;28;20029;-73
2023/09/27 10:36:54;;;;;;;20.40;3.50;;;20.80;80.70;;;;;;5050877;28;20033;-74
2023/09/27 10:39:19;;;;;;;16.55;3.85;;;20.90;80.90;;;;;;5041860;28;20139;-73
2023/09/27 10:41:48;;;;;;;13.68;3.55;;;21.10;80.40;;;;;;5050902;28;20033;-75
2023/09/27 10:44:27;;;;;;;15.60;3.17;;;21.00;79.60;;;;;;5041338;28;20115;-74
2023/09/27 10:46:52;;;;;;;13.43;3.75;;;21.00;80.20;;;;;;5045824;28;20033;-73
2023/09/27 10:49:22;;;;;;;16.42;3.00;;;21.30;78.70;;;;;;5034069;28;20028;-74
2023/09/27 10:51:48;;;;;;;10.18;3.13;;;21.60;77.30;;;;;;5041384;28;20508;-74
2023/09/27 10:54:13;;;;;;;18.25;3.75;;;21.70;77.40;;;;;;5042154;28;20059;-74
2023/09/27 10:56:44;;;;;;;14.90;3.58;;;21.50;77.10;;;;;;5061189;28;20230;-75
2023/09/27 10:59:11;;;;;;;11.30;2.92;;;21.60;75.90;;;;;;5068266;28;20074;-75
2023/09/27 11:01:44;;;;;;;25.95;4.50;;;21.80;75.00;;;;;;5062354;28;20025;-73
2023/09/27 11:04:12;;;;;;;14.73;2.95;;;21.80;75.10;;;;;;5060916;28;20217;-74
2023/09/27 11:06:38;;;;;;;19.23;4.30;;;21.90;75.10;;;;;;5071795;28;20550;-74
2023/09/27 11:09:07;;;;;;;18.25;3.75;;;22.00;74.10;;;;;;5048389;28;20066;-74
2023/09/27 11:11:34;;;;;;;14.45;3.65;;;21.90;74.00;;;;;;5048215;28;20467;-74
2023/09/27 11:14:00;;;;;;;17.15;3.65;;;21.80;74.20;;;;;;5041493;28;20734;-74
2023/09/27 11:16:26;;;;;;;15.27;3.10;;;21.90;74.50;;;;;;5033157;28;20032;-74
2023/09/27 11:18:52;;;;;;;18.40;4.22;;;22.00;73.30;;;;;;5044687;28;20404;-75
2023/09/27 11:21:19;;;;;;;14.85;3.40;;;21.80;73.90;;;;;;5040130;28;20051;-75
2023/09/27 11:24:04;;;;;;;17.58;3.85;;;21.50;75.50;;;;;;5053284;28;20056;-75
2023/09/27 11:26:32;;;;;;;15.63;3.88;;;21.30;76.30;;;;;;5066066;28;20077;-75
2023/09/27 11:29:06;;;;;;;14.63;3.80;;;21.10;77.70;;;;;;5074320;28;20024;-76
2023/09/27 11:31:34;;;;;;;20.73;4.43;;;21.00;78.80;;;;;;5061939;28;20028;-76
2023/09/27 11:34:21;;;;;;;21.42;4.13;;;21.10;78.00;;;;;;5061358;28;20036;-77
2023/09/27 11:36:51;;;;;;;20.67;3.88;;;21.20;78.10;;;;;;5046683;28;20028;-76
2023/09/27 11:39:19;;;;;;;18.08;3.88;;;21.10;77.30;;;;;;5055051;28;21277;-77
2023/09/27 11:41:45;;;;;;;14.95;3.33;;;21.10;77.00;;;;;;5039909;28;20512;-78
2023/09/27 11:44:18;;;;;;;23.63;4.60;;;21.00;77.70;;;;;;5048689;28;20353;-75
2023/09/27 11:46:45;;;;;;;19.88;4.07;;;20.70;78.90;;;;;;5036470;28;20475;-75
2023/09/27 11:49:10;;;;;;;15.82;3.15;;;20.90;78.10;;;;;;5047066;28;20032;-76
2023/09/27 11:51:37;;;;;;;11.68;3.70;;;21.00;77.90;;;;;;5040399;28;20038;-76
2023/09/27 11:54:04;;;;;;;16.42;4.13;;;21.10;78.00;;;;;;5050289;28;20524;-75
2023/09/27 11:56:30;;;;;;;15.40;3.60;;;21.20;77.60;;;;;;5036015;28;20036;-77
2023/09/27 11:58:56;;;;;;;11.77;3.20;;;21.20;77.90;;;;;;5058174;28;20033;-73
2023/09/27 12:01:21;;;;;;;17.77;4.07;;;21.00;78.30;;;;;;5051611;28;20527;-75
2023/09/27 12:03:47;;;;;;;23.85;4.10;;;20.70;78.90;;;;;;5061479;28;20025;-76
2023/09/27 12:06:13;;;;;;;11.07;4.28;;;20.70;79.80;;;;;;5060639;28;20081;-76
2023/09/27 12:08:38;;;;;;;19.95;4.72;;;20.60;80.10;;;;;;5058933;28;20066;-76
2023/09/27 12:11:04;;;;;;;16.67;4.35;;;20.60;80.60;;;;;;5047712;28;20032;-76
2023/09/27 12:13:30;;;;;;;12.95;4.07;;;20.60;80.30;;;;;;5069609;28;20101;-76
2023/09/27 12:15:55;;;;;;;15.95;4.18;;;20.60;80.90;;;;;;5061795;28;20120;-75
2023/09/27 12:18:22;;;;;;;10.57;4.43;;;20.50;80.40;;;;;;5063303;28;20111;-76
2023/09/27 12:20:48;;;;;;;19.05;4.43;;;20.60;80.90;;;;;;5071958;28;20040;-75
2023/09/27 12:23:14;;;;;;;17.90;4.90;;;20.50;80.70;;;;;;5067557;28;20044;-75
2023/09/27 12:25:39;;;;;;;12.38;4.72;;;20.40;80.80;;;;;;5070068;28;20115;-75
2023/09/27 12:28:05;;;;;;;15.45;4.40;;;20.20;81.50;;;;;;5064301;28;20054;-75
2023/09/27 12:30:32;;;;;;;13.75;3.80;;;20.30;81.60;;;;;;5075465;28;20045;-76
2023/09/27 12:32:57;;;;;;;19.52;4.80;;;20.50;80.70;;;;;;5068487;28;20077;-76
2023/09/27 12:35:23;;;;;;;16.05;4.80;;;20.90;79.60;;;;;;5055895;28;20135;-76
2023/09/27 12:37:50;;;;;;;17.63;4.63;;;20.90;79.20;;;;;;5043578;28;20675;-76